KWST/WST METAR and TAF weather

Enter ICAO airport designator
Station Type Date Time Source
KWST METAR 2022/11/30 10:53 UTC NOAA

KWST 301053Z AUTO 13008KT 10SM OVC020 09/06 A3018 RMK AO2 SLP219 T00940056


Station Type Date Time Source
KWST Decoded METAR 2022/11/30 10:53 UTC NOAA

WESTERLY STATE AIRPORT, RI, United States (KWST) 41-21N 071-48W 21M
Nov 30, 2022 - 05:53 AM EST / 2022.11.30 1053 UTC
Wind: from the SE (130 degrees) at 9 MPH (8 KT):0
Visibility: 10 mile(s):0
Sky conditions: overcast
Temperature: 48.9 F (9.4 C)
Dew Point: 42.1 F (5.6 C)
Relative Humidity: 77%
Pressure (altimeter): 30.18 in. Hg (1022 hPa)
ob: KWST 301053Z AUTO 13008KT 10SM OVC020 09/06 A3018 RMK AO2 SLP219 T00940056
cycle: 11

Station Type Date Time Source
KWST TAF UTC NOAA

Error!

Example: see airport list